sensor_id;sensor_type;location;lat;lon;timestamp;pressure;altitude;pressure_sealevel;temperature;humidity
10668;BME280;5382;42.136;24.796;2023-04-24T00:01:56;99757.00;;;11.21;100.00
10668;BME280;5382;42.136;24.796;2023-04-24T00:04:23;99758.88;;;11.08;100.00
10668;BME280;5382;42.136;24.796;2023-04-24T00:06:51;99764.78;;;11.00;100.00
10668;BME280;5382;42.136;24.796;2023-04-24T00:09:19;99760.66;;;10.96;100.00
10668;BME280;5382;42.136;24.796;2023-04-24T00:11:46;99764.03;;;10.98;100.00
10668;BME280;5382;42.136;24.796;2023-04-24T00:14:13;99769.44;;;10.97;100.00
10668;BME280;5382;42.136;24.796;2023-04-24T00:16:41;99764.84;;;10.87;100.00
10668;BME280;5382;42.136;24.796;2023-04-24T00:19:08;99772.56;;;10.90;100.00
10668;BME280;5382;42.136;24.796;2023-04-24T00:21:37;99777.69;;;10.81;100.00
10668;BME280;5382;42.136;24.796;2023-04-24T00:24:04;99773.47;;;10.78;100.00
10668;BME280;5382;42.136;24.796;2023-04-24T00:26:31;99768.50;;;10.74;100.00
10668;BME280;5382;42.136;24.796;2023-04-24T00:28:58;99770.72;;;10.80;100.00
10668;BME280;5382;42.136;24.796;2023-04-24T00:31:24;99772.06;;;10.85;100.00
10668;BME280;5382;42.136;24.796;2023-04-24T00:33:53;99766.09;;;10.95;100.00
10668;BME280;5382;42.136;24.796;2023-04-24T00:36:19;99757.91;;;10.98;100.00
10668;BME280;5382;42.136;24.796;2023-04-24T00:38:46;99755.50;;;10.95;100.00
10668;BME280;5382;42.136;24.796;2023-04-24T00:41:13;99756.19;;;10.97;100.00
10668;BME280;5382;42.136;24.796;2023-04-24T00:43:40;99756.94;;;10.99;100.00
10668;BME280;5382;42.136;24.796;2023-04-24T00:46:07;99761.38;;;10.87;100.00
10668;BME280;5382;42.136;24.796;2023-04-24T00:48:34;99762.19;;;10.87;100.00
10668;BME280;5382;42.136;24.796;2023-04-24T00:51:02;99762.47;;;10.96;100.00
10668;BME280;5382;42.136;24.796;2023-04-24T00:53:29;99760.41;;;10.99;100.00
10668;BME280;5382;42.136;24.796;2023-04-24T00:55:57;99766.59;;;11.00;100.00
10668;BME280;5382;42.136;24.796;2023-04-24T00:58:24;99756.56;;;10.92;100.00
10668;BME280;5382;42.136;24.796;2023-04-24T01:00:51;99763.31;;;11.07;100.00
10668;BME280;5382;42.136;24.796;2023-04-24T01:03:19;99768.75;;;11.17;100.00
10668;BME280;5382;42.136;24.796;2023-04-24T01:05:48;99758.06;;;11.30;100.00
10668;BME280;5382;42.136;24.796;2023-04-24T01:08:17;99753.16;;;11.37;100.00
10668;BME280;5382;42.136;24.796;2023-04-24T01:10:46;99760.97;;;11.27;100.00
10668;BME280;5382;42.136;24.796;2023-04-24T01:13:14;99768.41;;;11.10;100.00
10668;BME280;5382;42.136;24.796;2023-04-24T01:15:41;99764.28;;;11.06;100.00
10668;BME280;5382;42.136;24.796;2023-04-24T01:18:08;99763.56;;;11.04;100.00
10668;BME280;5382;42.136;24.796;2023-04-24T01:20:36;99760.66;;;11.07;100.00
10668;BME280;5382;42.136;24.796;2023-04-24T01:23:06;99762.03;;;11.13;100.00
10668;BME280;5382;42.136;24.796;2023-04-24T01:25:34;99750.13;;;11.19;100.00
10668;BME280;5382;42.136;24.796;2023-04-24T01:28:01;99748.06;;;11.22;100.00
10668;BME280;5382;42.136;24.796;2023-04-24T01:30:28;99753.22;;;11.12;100.00
10668;BME280;5382;42.136;24.796;2023-04-24T01:32:55;99762.38;;;11.20;100.00
10668;BME280;5382;42.136;24.796;2023-04-24T01:35:22;99763.63;;;11.27;100.00
10668;BME280;5382;42.136;24.796;2023-04-24T01:37:49;99769.88;;;11.26;100.00
10668;BME280;5382;42.136;24.796;2023-04-24T01:40:17;99764.00;;;11.33;100.00
10668;BME280;5382;42.136;24.796;2023-04-24T01:42:45;99770.13;;;11.34;100.00
10668;BME280;5382;42.136;24.796;2023-04-24T01:45:12;99770.13;;;11.34;100.00
10668;BME280;5382;42.136;24.796;2023-04-24T01:47:39;99761.69;;;11.40;100.00
10668;BME280;5382;42.136;24.796;2023-04-24T01:50:07;99759.53;;;11.45;100.00
10668;BME280;5382;42.136;24.796;2023-04-24T01:52:34;99759.28;;;11.48;100.00
10668;BME280;5382;42.136;24.796;2023-04-24T01:55:01;99760.25;;;11.47;100.00
10668;BME280;5382;42.136;24.796;2023-04-24T01:57:31;99762.91;;;11.47;100.00
10668;BME280;5382;42.136;24.796;2023-04-24T01:59:57;99763.28;;;11.54;100.00
10668;BME280;5382;42.136;24.796;2023-04-24T02:02:24;99764.72;;;11.58;100.00
10668;BME280;5382;42.136;24.796;2023-04-24T02:04:53;99758.47;;;11.59;100.00
10668;BME280;5382;42.136;24.796;2023-04-24T02:07:20;99760.41;;;11.57;100.00
10668;BME280;5382;42.136;24.796;2023-04-24T02:09:48;99762.81;;;11.49;100.00
10668;BME280;5382;42.136;24.796;2023-04-24T02:12:15;99749.41;;;11.50;100.00
10668;BME280;5382;42.136;24.796;2023-04-24T02:14:44;99757.13;;;11.53;100.00
10668;BME280;5382;42.136;24.796;2023-04-24T02:17:10;99750.25;;;11.28;100.00
10668;BME280;5382;42.136;24.796;2023-04-24T02:19:37;99746.75;;;11.28;100.00
10668;BME280;5382;42.136;24.796;2023-04-24T02:22:04;99738.31;;;11.11;100.00
10668;BME280;5382;42.136;24.796;2023-04-24T02:24:31;99755.16;;;11.10;100.00
10668;BME280;5382;42.136;24.796;2023-04-24T02:26:58;99749.00;;;11.10;100.00
10668;BME280;5382;42.136;24.796;2023-04-24T02:29:25;99743.59;;;11.00;100.00
10668;BME280;5382;42.136;24.796;2023-04-24T02:31:53;99742.75;;;11.11;100.00
10668;BME280;5382;42.136;24.796;2023-04-24T02:34:20;99745.03;;;11.04;100.00
10668;BME280;5382;42.136;24.796;2023-04-24T02:36:48;99736.84;;;11.07;100.00
10668;BME280;5382;42.136;24.796;2023-04-24T02:39:15;99732.16;;;11.00;100.00
10668;BME280;5382;42.136;24.796;2023-04-24T02:41:42;99738.16;;;11.02;100.00
10668;BME280;5382;42.136;24.796;2023-04-24T02:44:09;99731.53;;;10.96;100.00
10668;BME280;5382;42.136;24.796;2023-04-24T02:46:36;99737.81;;;10.95;100.00
10668;BME280;5382;42.136;24.796;2023-04-24T02:49:04;99738.03;;;10.92;100.00
10668;BME280;5382;42.136;24.796;2023-04-24T02:51:31;99733.59;;;10.93;100.00
10668;BME280;5382;42.136;24.796;2023-04-24T02:53:58;99727.28;;;10.82;100.00
10668;BME280;5382;42.136;24.796;2023-04-24T02:56:25;99735.34;;;10.81;100.00
10668;BME280;5382;42.136;24.796;2023-04-24T02:58:51;99731.03;;;10.80;100.00
10668;BME280;5382;42.136;24.796;2023-04-24T03:01:18;99720.19;;;10.72;100.00
10668;BME280;5382;42.136;24.796;2023-04-24T03:03:45;99742.19;;;10.72;100.00
10668;BME280;5382;42.136;24.796;2023-04-24T03:06:13;99738.56;;;10.73;100.00
10668;BME280;5382;42.136;24.796;2023-04-24T03:08:40;99730.13;;;10.68;100.00
10668;BME280;5382;42.136;24.796;2023-04-24T03:11:07;99734.00;;;10.75;100.00
10668;BME280;5382;42.136;24.796;2023-04-24T03:13:34;99741.34;;;10.72;100.00
10668;BME280;5382;42.136;24.796;2023-04-24T03:16:02;99730.19;;;10.55;100.00
10668;BME280;5382;42.136;24.796;2023-04-24T03:18:28;99737.03;;;10.46;100.00
10668;BME280;5382;42.136;24.796;2023-04-24T03:20:55;99742.28;;;10.35;100.00
10668;BME280;5382;42.136;24.796;2023-04-24T03:23:24;99738.94;;;9.83;100.00
10668;BME280;5382;42.136;24.796;2023-04-24T03:25:51;99740.72;;;9.83;100.00
10668;BME280;5382;42.136;24.796;2023-04-24T03:28:18;99750.16;;;9.74;100.00
10668;BME280;5382;42.136;24.796;2023-04-24T03:30:45;99747.91;;;9.81;100.00
10668;BME280;5382;42.136;24.796;2023-04-24T03:33:12;99752.00;;;9.98;100.00
10668;BME280;5382;42.136;24.796;2023-04-24T03:35:38;99750.28;;;10.10;100.00
10668;BME280;5382;42.136;24.796;2023-04-24T03:38:05;99756.44;;;10.21;100.00
10668;BME280;5382;42.136;24.796;2023-04-24T03:40:33;99758.56;;;10.29;100.00
10668;BME280;5382;42.136;24.796;2023-04-24T03:43:01;99763.72;;;10.43;100.00
10668;BME280;5382;42.136;24.796;2023-04-24T03:45:27;99767.69;;;10.49;100.00
10668;BME280;5382;42.136;24.796;2023-04-24T03:47:54;99756.81;;;10.65;100.00
10668;BME280;5382;42.136;24.796;2023-04-24T03:50:21;99753.00;;;10.69;100.00
10668;BME280;5382;42.136;24.796;2023-04-24T03:52:48;99759.13;;;10.69;100.00
10668;BME280;5382;42.136;24.796;2023-04-24T03:55:15;99756.25;;;10.73;100.00
10668;BME280;5382;42.136;24.796;2023-04-24T03:57:43;99747.84;;;10.79;100.00
10668;BME280;5382;42.136;24.796;2023-04-24T04:00:11;99741.28;;;10.96;100.00
10668;BME280;5382;42.136;24.796;2023-04-24T04:02:38;99743.81;;;10.97;100.00
10668;BME280;5382;42.136;24.796;2023-04-24T04:05:05;99750.31;;;10.93;100.00
10668;BME280;5382;42.136;24.796;2023-04-24T04:07:32;99748.63;;;10.92;100.00
10668;BME280;5382;42.136;24.796;2023-04-24T04:09:58;99756.00;;;11.00;100.00
10668;BME280;5382;42.136;24.796;2023-04-24T04:12:25;99757.16;;;10.96;100.00
10668;BME280;5382;42.136;24.796;2023-04-24T04:14:53;99761.06;;;10.79;100.00
10668;BME280;5382;42.136;24.796;2023-04-24T04:17:20;99769.25;;;10.76;100.00
10668;BME280;5382;42.136;24.796;2023-04-24T04:19:47;99775.38;;;10.76;100.00
10668;BME280;5382;42.136;24.796;2023-04-24T04:22:13;99777.16;;;10.64;100.00
10668;BME280;5382;42.136;24.796;2023-04-24T04:24:40;99772.84;;;10.51;100.00
10668;BME280;5382;42.136;24.796;2023-04-24T04:27:08;99769.09;;;10.42;100.00
10668;BME280;5382;42.136;24.796;2023-04-24T04:29:35;99779.13;;;10.50;100.00
10668;BME280;5382;42.136;24.796;2023-04-24T04:32:03;99780.94;;;10.49;100.00
10668;BME280;5382;42.136;24.796;2023-04-24T04:34:30;99779.84;;;10.52;100.00
10668;BME280;5382;42.136;24.796;2023-04-24T04:36:57;99784.34;;;10.62;100.00
10668;BME280;5382;42.136;24.796;2023-04-24T04:39:27;99784.59;;;10.59;100.00
10668;BME280;5382;42.136;24.796;2023-04-24T04:41:55;99776.31;;;10.64;100.00
10668;BME280;5382;42.136;24.796;2023-04-24T04:44:22;99765.31;;;10.57;100.00
10668;BME280;5382;42.136;24.796;2023-04-24T04:46:49;99776.25;;;10.77;100.00
10668;BME280;5382;42.136;24.796;2023-04-24T04:49:19;99782.97;;;10.81;100.00
10668;BME280;5382;42.136;24.796;2023-04-24T04:51:47;99787.44;;;10.80;100.00
10668;BME280;5382;42.136;24.796;2023-04-24T04:54:13;99787.84;;;10.87;100.00
10668;BME280;5382;42.136;24.796;2023-04-24T04:56:41;99789.00;;;10.83;100.00
10668;BME280;5382;42.136;24.796;2023-04-24T04:59:07;99784.22;;;10.88;100.00
10668;BME280;5382;42.136;24.796;2023-04-24T05:01:34;99777.50;;;10.95;100.00
10668;BME280;5382;42.136;24.796;2023-04-24T05:04:02;99774.53;;;11.11;100.00
10668;BME280;5382;42.136;24.796;2023-04-24T05:06:30;99778.91;;;11.23;100.00
10668;BME280;5382;42.136;24.796;2023-04-24T05:08:57;99773.63;;;11.34;100.00
10668;BME280;5382;42.136;24.796;2023-04-24T05:11:23;99772.78;;;11.45;100.00
10668;BME280;5382;42.136;24.796;2023-04-24T05:13:50;99776.28;;;11.46;100.00
10668;BME280;5382;42.136;24.796;2023-04-24T05:16:17;99773.50;;;11.58;100.00
10668;BME280;5382;42.136;24.796;2023-04-24T05:18:44;99775.47;;;11.56;100.00
10668;BME280;5382;42.136;24.796;2023-04-24T05:21:11;99779.19;;;11.76;100.00
10668;BME280;5382;42.136;24.796;2023-04-24T05:23:39;99769.56;;;11.87;100.00
10668;BME280;5382;42.136;24.796;2023-04-24T05:26:06;99762.69;;;12.07;100.00
10668;BME280;5382;42.136;24.796;2023-04-24T05:28:33;99763.03;;;12.13;100.00
10668;BME280;5382;42.136;24.796;2023-04-24T05:31:02;99759.50;;;12.24;100.00
10668;BME280;5382;42.136;24.796;2023-04-24T05:33:29;99764.13;;;12.11;100.00
10668;BME280;5382;42.136;24.796;2023-04-24T05:35:55;99755.81;;;12.04;100.00
10668;BME280;5382;42.136;24.796;2023-04-24T05:38:23;99752.72;;;11.88;100.00
10668;BME280;5382;42.136;24.796;2023-04-24T05:40:51;99753.41;;;12.01;100.00
10668;BME280;5382;42.136;24.796;2023-04-24T05:43:18;99749.78;;;12.02;100.00
10668;BME280;5382;42.136;24.796;2023-04-24T05:45:45;99737.84;;;12.08;100.00
10668;BME280;5382;42.136;24.796;2023-04-24T05:48:11;99737.00;;;12.07;100.00
10668;BME280;5382;42.136;24.796;2023-04-24T05:50:38;99745.63;;;12.20;100.00
10668;BME280;5382;42.136;24.796;2023-04-24T05:53:05;99741.91;;;12.23;100.00
10668;BME280;5382;42.136;24.796;2023-04-24T05:55:33;99751.47;;;12.47;100.00
10668;BME280;5382;42.136;24.796;2023-04-24T05:58:01;99742.81;;;12.44;100.00
10668;BME280;5382;42.136;24.796;2023-04-24T06:00:28;99741.53;;;12.28;100.00
10668;BME280;5382;42.136;24.796;2023-04-24T06:02:55;99739.00;;;12.26;100.00
10668;BME280;5382;42.136;24.796;2023-04-24T06:05:22;99744.28;;;12.26;100.00
10668;BME280;5382;42.136;24.796;2023-04-24T06:07:48;99746.94;;;12.26;100.00
10668;BME280;5382;42.136;24.796;2023-04-24T06:10:15;99750.06;;;12.42;100.00
10668;BME280;5382;42.136;24.796;2023-04-24T06:12:42;99750.25;;;12.51;100.00
10668;BME280;5382;42.136;24.796;2023-04-24T06:15:10;99756.66;;;12.48;100.00
10668;BME280;5382;42.136;24.796;2023-04-24T06:17:38;99759.69;;;12.43;100.00
10668;BME280;5382;42.136;24.796;2023-04-24T06:20:05;99760.56;;;12.33;100.00
10668;BME280;5382;42.136;24.796;2023-04-24T06:22:33;99751.16;;;12.40;100.00
10668;BME280;5382;42.136;24.796;2023-04-24T06:25:00;99754.63;;;12.40;100.00
10668;BME280;5382;42.136;24.796;2023-04-24T06:27:27;99745.59;;;12.43;100.00
10668;BME280;5382;42.136;24.796;2023-04-24T06:29:54;99737.91;;;12.61;100.00
10668;BME280;5382;42.136;24.796;2023-04-24T06:32:23;99749.00;;;12.66;100.00
10668;BME280;5382;42.136;24.796;2023-04-24T06:34:51;99740.66;;;12.71;100.00
10668;BME280;5382;42.136;24.796;2023-04-24T06:37:18;99750.66;;;12.67;100.00
10668;BME280;5382;42.136;24.796;2023-04-24T06:39:45;99751.13;;;12.72;100.00
10668;BME280;5382;42.136;24.796;2023-04-24T06:42:12;99751.66;;;12.87;100.00
10668;BME280;5382;42.136;24.796;2023-04-24T06:44:39;99755.34;;;12.96;100.00
10668;BME280;5382;42.136;24.796;2023-04-24T06:47:07;99752.38;;;13.10;100.00
10668;BME280;5382;42.136;24.796;2023-04-24T06:49:36;99730.59;;;13.16;100.00
10668;BME280;5382;42.136;24.796;2023-04-24T06:52:04;99750.53;;;13.43;100.00
10668;BME280;5382;42.136;24.796;2023-04-24T06:54:31;99750.38;;;13.44;100.00
10668;BME280;5382;42.136;24.796;2023-04-24T06:56:57;99755.03;;;13.52;100.00
10668;BME280;5382;42.136;24.796;2023-04-24T06:59:26;99754.75;;;13.55;100.00
10668;BME280;5382;42.136;24.796;2023-04-24T07:01:52;99750.16;;;13.57;100.00
10668;BME280;5382;42.136;24.796;2023-04-24T07:04:19;99752.75;;;13.68;100.00
10668;BME280;5382;42.136;24.796;2023-04-24T07:06:48;99752.59;;;13.70;100.00
10668;BME280;5382;42.136;24.796;2023-04-24T07:09:16;99753.47;;;13.49;100.00
10668;BME280;5382;42.136;24.796;2023-04-24T07:11:43;99754.06;;;13.53;100.00
10668;BME280;5382;42.136;24.796;2023-04-24T07:14:10;99752.91;;;13.46;100.00
10668;BME280;5382;42.136;24.796;2023-04-24T07:16:37;99754.34;;;13.60;100.00
10668;BME280;5382;42.136;24.796;2023-04-24T07:19:04;99757.94;;;13.80;100.00
10668;BME280;5382;42.136;24.796;2023-04-24T07:21:31;99759.81;;;13.99;100.00
10668;BME280;5382;42.136;24.796;2023-04-24T07:23:59;99760.44;;;14.22;100.00
10668;BME280;5382;42.136;24.796;2023-04-24T07:26:26;99753.03;;;14.25;100.00
10668;BME280;5382;42.136;24.796;2023-04-24T07:28:53;99756.81;;;14.32;100.00
10668;BME280;5382;42.136;24.796;2023-04-24T07:31:20;99753.47;;;14.40;100.00
10668;BME280;5382;42.136;24.796;2023-04-24T07:33:47;99755.16;;;14.41;100.00
10668;BME280;5382;42.136;24.796;2023-04-24T07:36:14;99749.28;;;14.47;100.00
10668;BME280;5382;42.136;24.796;2023-04-24T07:38:44;99758.56;;;14.53;100.00
10668;BME280;5382;42.136;24.796;2023-04-24T07:41:12;99757.72;;;14.72;100.00
10668;BME280;5382;42.136;24.796;2023-04-24T07:43:39;99756.31;;;14.68;100.00
10668;BME280;5382;42.136;24.796;2023-04-24T07:46:06;99752.13;;;14.65;100.00
10668;BME280;5382;42.136;24.796;2023-04-24T07:48:33;99752.09;;;14.55;100.00
10668;BME280;5382;42.136;24.796;2023-04-24T07:51:00;99749.88;;;14.80;100.00
10668;BME280;5382;42.136;24.796;2023-04-24T07:53:26;99753.50;;;15.08;100.00
10668;BME280;5382;42.136;24.796;2023-04-24T07:55:54;99752.59;;;15.37;100.00
10668;BME280;5382;42.136;24.796;2023-04-24T07:58:22;99745.53;;;15.45;100.00
10668;BME280;5382;42.136;24.796;2023-04-24T08:00:49;99740.81;;;15.77;100.00
10668;BME280;5382;42.136;24.796;2023-04-24T08:03:16;99744.03;;;15.80;100.00
10668;BME280;5382;42.136;24.796;2023-04-24T08:05:45;99744.00;;;16.08;100.00
10668;BME280;5382;42.136;24.796;2023-04-24T08:08:11;99746.25;;;15.85;100.00
10668;BME280;5382;42.136;24.796;2023-04-24T08:10:38;99741.47;;;15.88;100.00
10668;BME280;5382;42.136;24.796;2023-04-24T08:13:05;99734.28;;;16.17;100.00
10668;BME280;5382;42.136;24.796;2023-04-24T08:15:34;99739.25;;;16.29;100.00
10668;BME280;5382;42.136;24.796;2023-04-24T08:18:01;99738.41;;;16.11;100.00
10668;BME280;5382;42.136;24.796;2023-04-24T08:20:27;99727.81;;;16.19;100.00
10668;BME280;5382;42.136;24.796;2023-04-24T08:22:54;99730.31;;;16.39;100.00
10668;BME280;5382;42.136;24.796;2023-04-24T08:25:21;99727.81;;;16.55;100.00
10668;BME280;5382;42.136;24.796;2023-04-24T08:27:50;99721.78;;;16.71;100.00
10668;BME280;5382;42.136;24.796;2023-04-24T08:30:17;99720.47;;;16.75;100.00
10668;BME280;5382;42.136;24.796;2023-04-24T08:32:45;99712.09;;;16.88;100.00
10668;BME280;5382;42.136;24.796;2023-04-24T08:35:12;99705.59;;;16.72;100.00
10668;BME280;5382;42.136;24.796;2023-04-24T08:37:39;99708.38;;;16.81;100.00
10668;BME280;5382;42.136;24.796;2023-04-24T08:40:10;99705.53;;;16.82;100.00
10668;BME280;5382;42.136;24.796;2023-04-24T08:42:39;99695.88;;;17.07;100.00
10668;BME280;5382;42.136;24.796;2023-04-24T08:45:07;99696.63;;;17.26;100.00
10668;BME280;5382;42.136;24.796;2023-04-24T08:47:35;99689.19;;;17.37;100.00
10668;BME280;5382;42.136;24.796;2023-04-24T08:50:04;99676.38;;;17.49;100.00
10668;BME280;5382;42.136;24.796;2023-04-24T08:52:32;99685.22;;;17.50;100.00
10668;BME280;5382;42.136;24.796;2023-04-24T08:55:00;99685.09;;;17.59;100.00
10668;BME280;5382;42.136;24.796;2023-04-24T08:57:27;99675.59;;;17.65;100.00
10668;BME280;5382;42.136;24.796;2023-04-24T08:59:55;99681.72;;;17.83;100.00
10668;BME280;5382;42.136;24.796;2023-04-24T09:02:24;99683.97;;;18.04;100.00
10668;BME280;5382;42.136;24.796;2023-04-24T09:04:52;99660.63;;;17.88;100.00
10668;BME280;5382;42.136;24.796;2023-04-24T09:07:22;99670.78;;;17.77;100.00
10668;BME280;5382;42.136;24.796;2023-04-24T09:09:51;99669.38;;;17.99;100.00
10668;BME280;5382;42.136;24.796;2023-04-24T09:12:18;99657.00;;;18.06;100.00
10668;BME280;5382;42.136;24.796;2023-04-24T09:14:45;99659.53;;;18.16;100.00
10668;BME280;5382;42.136;24.796;2023-04-24T09:17:12;99661.25;;;18.41;100.00
10668;BME280;5382;42.136;24.796;2023-04-24T09:19:40;99669.13;;;18.51;100.00
10668;BME280;5382;42.136;24.796;2023-04-24T09:22:07;99667.09;;;18.45;100.00
10668;BME280;5382;42.136;24.796;2023-04-24T09:24:38;99659.41;;;18.34;100.00
10668;BME280;5382;42.136;24.796;2023-04-24T09:27:05;99652.19;;;18.50;100.00
10668;BME280;5382;42.136;24.796;2023-04-24T09:29:32;99659.88;;;18.21;100.00
10668;BME280;5382;42.136;24.796;2023-04-24T09:31:59;99659.25;;;18.51;100.00
10668;BME280;5382;42.136;24.796;2023-04-24T09:34:26;99661.91;;;18.68;100.00
10668;BME280;5382;42.136;24.796;2023-04-24T09:36:54;99658.38;;;19.00;100.00
10668;BME280;5382;42.136;24.796;2023-04-24T09:39:20;99649.97;;;19.11;100.00
10668;BME280;5382;42.136;24.796;2023-04-24T09:41:50;99642.25;;;19.16;100.00
10668;BME280;5382;42.136;24.796;2023-04-24T09:44:18;99636.06;;;19.16;100.00
10668;BME280;5382;42.136;24.796;2023-04-24T09:46:50;99639.34;;;19.34;100.00
10668;BME280;5382;42.136;24.796;2023-04-24T09:49:22;99629.19;;;19.53;100.00
10668;BME280;5382;42.136;24.796;2023-04-24T09:51:49;99630.94;;;19.37;100.00
10668;BME280;5382;42.136;24.796;2023-04-24T09:54:17;99635.34;;;19.61;100.00
10668;BME280;5382;42.136;24.796;2023-04-24T09:56:46;99616.69;;;19.76;100.00
10668;BME280;5382;42.136;24.796;2023-04-24T09:59:17;99621.66;;;19.88;100.00
10668;BME280;5382;42.136;24.796;2023-04-24T10:01:44;99608.84;;;19.75;100.00
10668;BME280;5382;42.136;24.796;2023-04-24T10:04:19;99610.03;;;19.72;100.00
10668;BME280;5382;42.136;24.796;2023-04-24T10:06:47;99606.72;;;19.85;100.00
10668;BME280;5382;42.136;24.796;2023-04-24T10:09:15;99604.53;;;19.89;100.00
10668;BME280;5382;42.136;24.796;2023-04-24T10:11:43;99608.97;;;20.04;100.00
10668;BME280;5382;42.136;24.796;2023-04-24T10:14:12;99607.94;;;20.29;100.00
10668;BME280;5382;42.136;24.796;2023-04-24T10:16:42;99613.59;;;20.34;100.00
10668;BME280;5382;42.136;24.796;2023-04-24T10:19:09;99602.63;;;20.43;100.00
10668;BME280;5382;42.136;24.796;2023-04-24T10:21:40;99601.44;;;20.84;100.00
10668;BME280;5382;42.136;24.796;2023-04-24T10:24:08;99602.53;;;20.89;100.00
10668;BME280;5382;42.136;24.796;2023-04-24T10:26:35;99587.59;;;21.17;100.00
10668;BME280;5382;42.136;24.796;2023-04-24T10:29:05;99576.00;;;21.01;100.00
10668;BME280;5382;42.136;24.796;2023-04-24T10:31:36;99577.69;;;21.17;100.00
10668;BME280;5382;42.136;24.796;2023-04-24T10:34:05;99578.88;;;21.44;100.00
10668;BME280;5382;42.136;24.796;2023-04-24T10:36:33;99574.38;;;21.66;100.00
10668;BME280;5382;42.136;24.796;2023-04-24T10:39:02;99572.91;;;22.07;100.00
10668;BME280;5382;42.136;24.796;2023-04-24T10:41:30;99560.16;;;22.65;90.61
10668;BME280;5382;42.136;24.796;2023-04-24T10:44:06;99558.94;;;23.02;89.73
10668;BME280;5382;42.136;24.796;2023-04-24T10:46:33;99553.84;;;23.14;83.27
10668;BME280;5382;42.136;24.796;2023-04-24T10:49:05;99549.13;;;23.29;88.55
10668;BME280;5382;42.136;24.796;2023-04-24T10:51:45;99548.97;;;23.44;89.00
10668;BME280;5382;42.136;24.796;2023-04-24T10:54:23;99529.84;;;23.46;86.63
10668;BME280;5382;42.136;24.796;2023-04-24T10:56:51;99536.16;;;23.66;82.24
10668;BME280;5382;42.136;24.796;2023-04-24T10:59:24;99531.56;;;23.67;85.24
10668;BME280;5382;42.136;24.796;2023-04-24T11:01:53;99514.38;;;23.88;81.30
10668;BME280;5382;42.136;24.796;2023-04-24T11:04:31;99514.41;;;24.14;78.35
10668;BME280;5382;42.136;24.796;2023-04-24T11:07:00;99511.38;;;25.02;72.95
10668;BME280;5382;42.136;24.796;2023-04-24T11:09:28;99512.25;;;25.48;70.52
10668;BME280;5382;42.136;24.796;2023-04-24T11:12:03;99506.63;;;24.85;73.16
10668;BME280;5382;42.136;24.796;2023-04-24T11:14:59;99498.22;;;25.06;72.04
10668;BME280;5382;42.136;24.796;2023-04-24T11:17:30;99506.56;;;25.18;73.58
10668;BME280;5382;42.136;24.796;2023-04-24T11:20:02;99500.13;;;25.51;70.63
10668;BME280;5382;42.136;24.796;2023-04-24T11:22:33;99489.38;;;26.01;65.50
10668;BME280;5382;42.136;24.796;2023-04-24T11:25:00;99487.00;;;25.86;66.30
10668;BME280;5382;42.136;24.796;2023-04-24T11:27:30;99489.34;;;25.44;68.65
10668;BME280;5382;42.136;24.796;2023-04-24T11:30:02;99483.41;;;25.15;69.21
10668;BME280;5382;42.136;24.796;2023-04-24T11:32:34;99481.53;;;25.09;69.85
10668;BME280;5382;42.136;24.796;2023-04-24T11:35:04;99484.88;;;25.18;73.07
10668;BME280;5382;42.136;24.796;2023-04-24T11:37:34;99469.72;;;25.49;72.60
10668;BME280;5382;42.136;24.796;2023-04-24T11:40:03;99471.25;;;25.70;67.75
10668;BME280;5382;42.136;24.796;2023-04-24T11:42:34;99467.00;;;25.49;67.34
10668;BME280;5382;42.136;24.796;2023-04-24T11:45:01;99461.03;;;25.72;73.19
10668;BME280;5382;42.136;24.796;2023-04-24T11:47:29;99465.66;;;26.40;69.34
10668;BME280;5382;42.136;24.796;2023-04-24T11:49:59;99457.50;;;26.65;67.92
10668;BME280;5382;42.136;24.796;2023-04-24T11:52:27;99464.78;;;27.01;64.07
10668;BME280;5382;42.136;24.796;2023-04-24T11:54:54;99453.69;;;27.03;62.79
10668;BME280;5382;42.136;24.796;2023-04-24T11:57:22;99434.09;;;27.19;61.58
10668;BME280;5382;42.136;24.796;2023-04-24T11:59:49;99437.63;;;27.19;60.50
10668;BME280;5382;42.136;24.796;2023-04-24T12:02:22;99431.53;;;27.36;59.61
10668;BME280;5382;42.136;24.796;2023-04-24T12:04:50;99425.81;;;27.26;60.34
10668;BME280;5382;42.136;24.796;2023-04-24T12:07:16;99426.66;;;27.80;58.46
10668;BME280;5382;42.136;24.796;2023-04-24T12:09:46;99417.38;;;28.23;57.99
10668;BME280;5382;42.136;24.796;2023-04-24T12:12:13;99407.09;;;28.25;56.38
10668;BME280;5382;42.136;24.796;2023-04-24T12:14:58;99399.03;;;28.30;60.98
10668;BME280;5382;42.136;24.796;2023-04-24T12:17:27;99390.16;;;28.35;56.80
10668;BME280;5382;42.136;24.796;2023-04-24T12:19:59;99382.28;;;28.74;57.35
10668;BME280;5382;42.136;24.796;2023-04-24T12:22:27;99376.97;;;28.67;55.68
10668;BME280;5382;42.136;24.796;2023-04-24T12:25:00;99366.13;;;28.43;57.29
10668;BME280;5382;42.136;24.796;2023-04-24T12:27:31;99356.50;;;28.64;55.19
10668;BME280;5382;42.136;24.796;2023-04-24T12:30:09;99349.41;;;28.63;54.77
10668;BME280;5382;42.136;24.796;2023-04-24T12:32:42;99343.06;;;29.15;52.86
10668;BME280;5382;42.136;24.796;2023-04-24T12:35:12;99342.59;;;28.78;53.10
10668;BME280;5382;42.136;24.796;2023-04-24T12:37:42;99335.53;;;28.93;52.80
10668;BME280;5382;42.136;24.796;2023-04-24T12:40:11;99313.84;;;28.99;50.73
10668;BME280;5382;42.136;24.796;2023-04-24T12:42:42;99323.06;;;29.26;51.12
10668;BME280;5382;42.136;24.796;2023-04-24T12:45:09;99324.44;;;28.55;51.07
10668;BME280;5382;42.136;24.796;2023-04-24T12:47:38;99316.38;;;28.60;53.86
10668;BME280;5382;42.136;24.796;2023-04-24T12:50:07;99309.72;;;28.67;54.17
10668;BME280;5382;42.136;24.796;2023-04-24T12:52:34;99307.59;;;28.69;51.48
10668;BME280;5382;42.136;24.796;2023-04-24T12:55:01;99308.56;;;28.92;50.90
10668;BME280;5382;42.136;24.796;2023-04-24T12:57:30;99299.91;;;28.66;51.06